KMHV/MHV METAR and TAF weather

Enter ICAO airport designator
Station Type Date Time Source
KMHV METAR 2019/06/19 02:00 UTC NOAA

KMHV 190200Z AUTO 30017KT 10SM CLR 32/12 A2990 RMK A01


Station Type Date Time Source
KMHV Decoded METAR 2019/06/19 02:00 UTC NOAA

Mojave, CA, United States (KMHV) 35-04N 118-09W
Jun 18, 2019 - 10:00 PM EDT / 2019.06.19 0200 UTC
Wind: from the WNW (300 degrees) at 20 MPH (17 KT):0
Visibility: 10 mile(s):0
Sky conditions: clear
Temperature: 89 F (32 C)
Dew Point: 53 F (12 C)
Relative Humidity: 29%
Pressure (altimeter): 29.9 in. Hg (1012 hPa)
ob: KMHV 190200Z AUTO 30017KT 10SM CLR 32/12 A2990 RMK A01
cycle: 2

Station Type Date Time Source
KMHV TAF UTC NOAA

Error!

Example: see airport list